sensor_id;sensor_type;location;lat;lon;timestamp;temperature;humidity
23721;DHT22;42950;52.134;5.578;2022-12-07T00:01:17;4.40;99.90
23721;DHT22;42950;52.134;5.578;2022-12-07T00:03:44;4.50;99.90
23721;DHT22;42950;52.134;5.578;2022-12-07T00:06:12;4.50;99.90
23721;DHT22;42950;52.134;5.578;2022-12-07T00:08:38;4.50;99.90
23721;DHT22;42950;52.134;5.578;2022-12-07T00:11:10;4.50;99.90
23721;DHT22;42950;52.134;5.578;2022-12-07T00:13:36;4.50;99.90
23721;DHT22;42950;52.134;5.578;2022-12-07T00:16:07;4.30;99.90
23721;DHT22;42950;52.134;5.578;2022-12-07T00:18:33;4.30;99.90
23721;DHT22;42950;52.134;5.578;2022-12-07T00:21:00;4.30;99.90
23721;DHT22;42950;52.134;5.578;2022-12-07T00:23:26;4.30;99.90
23721;DHT22;42950;52.134;5.578;2022-12-07T00:25:52;4.40;99.90
23721;DHT22;42950;52.134;5.578;2022-12-07T00:28:17;4.40;99.90
23721;DHT22;42950;52.134;5.578;2022-12-07T00:30:43;4.40;99.90
23721;DHT22;42950;52.134;5.578;2022-12-07T00:33:08;4.40;99.90
23721;DHT22;42950;52.134;5.578;2022-12-07T00:35:34;4.40;99.90
23721;DHT22;42950;52.134;5.578;2022-12-07T00:37:59;4.30;99.90
23721;DHT22;42950;52.134;5.578;2022-12-07T00:40:25;4.30;99.90
23721;DHT22;42950;52.134;5.578;2022-12-07T00:42:50;4.30;99.90
23721;DHT22;42950;52.134;5.578;2022-12-07T00:45:16;4.20;99.90
23721;DHT22;42950;52.134;5.578;2022-12-07T00:47:41;4.20;99.90
23721;DHT22;42950;52.134;5.578;2022-12-07T00:50:07;4.20;99.90
23721;DHT22;42950;52.134;5.578;2022-12-07T00:52:33;4.20;99.90
23721;DHT22;42950;52.134;5.578;2022-12-07T00:54:58;4.20;99.90
23721;DHT22;42950;52.134;5.578;2022-12-07T00:57:24;4.20;99.90
23721;DHT22;42950;52.134;5.578;2022-12-07T00:59:49;4.20;99.90
23721;DHT22;42950;52.134;5.578;2022-12-07T01:02:15;4.10;99.90
23721;DHT22;42950;52.134;5.578;2022-12-07T01:04:40;4.10;99.90
23721;DHT22;42950;52.134;5.578;2022-12-07T01:07:06;4.10;99.90
23721;DHT22;42950;52.134;5.578;2022-12-07T01:09:31;4.00;99.90
23721;DHT22;42950;52.134;5.578;2022-12-07T01:11:57;4.00;99.90
23721;DHT22;42950;52.134;5.578;2022-12-07T01:14:23;3.90;99.90
23721;DHT22;42950;52.134;5.578;2022-12-07T01:16:48;3.90;99.90
23721;DHT22;42950;52.134;5.578;2022-12-07T01:19:14;3.90;99.90
23721;DHT22;42950;52.134;5.578;2022-12-07T01:21:39;3.90;99.90
23721;DHT22;42950;52.134;5.578;2022-12-07T01:24:07;3.90;99.90
23721;DHT22;42950;52.134;5.578;2022-12-07T01:26:33;4.00;99.90
23721;DHT22;42950;52.134;5.578;2022-12-07T01:28:58;4.00;99.90
23721;DHT22;42950;52.134;5.578;2022-12-07T01:31:27;3.90;99.90
23721;DHT22;42950;52.134;5.578;2022-12-07T01:33:56;3.90;99.90
23721;DHT22;42950;52.134;5.578;2022-12-07T01:36:30;3.80;99.90
23721;DHT22;42950;52.134;5.578;2022-12-07T01:38:59;3.80;99.90
23721;DHT22;42950;52.134;5.578;2022-12-07T01:41:27;3.70;99.90
23721;DHT22;42950;52.134;5.578;2022-12-07T01:46:49;3.70;99.90
23721;DHT22;42950;52.134;5.578;2022-12-07T01:51:58;3.50;99.90
23721;DHT22;42950;52.134;5.578;2022-12-07T01:54:25;3.50;99.90
23721;DHT22;42950;52.134;5.578;2022-12-07T01:56:54;3.50;99.90
23721;DHT22;42950;52.134;5.578;2022-12-07T01:59:23;3.50;99.90
23721;DHT22;42950;52.134;5.578;2022-12-07T02:01:50;3.40;99.90
23721;DHT22;42950;52.134;5.578;2022-12-07T02:04:16;3.40;99.90
23721;DHT22;42950;52.134;5.578;2022-12-07T02:06:43;3.40;99.90
23721;DHT22;42950;52.134;5.578;2022-12-07T02:09:09;3.40;99.90
23721;DHT22;42950;52.134;5.578;2022-12-07T02:11:35;3.30;99.90
23721;DHT22;42950;52.134;5.578;2022-12-07T02:14:01;3.30;99.90
23721;DHT22;42950;52.134;5.578;2022-12-07T02:16:43;3.30;99.90
23721;DHT22;42950;52.134;5.578;2022-12-07T02:25:23;3.40;99.90
23721;DHT22;42950;52.134;5.578;2022-12-07T02:28:06;3.40;99.90
23721;DHT22;42950;52.134;5.578;2022-12-07T02:30:37;3.40;99.90
23721;DHT22;42950;52.134;5.578;2022-12-07T02:33:11;3.40;99.90
23721;DHT22;42950;52.134;5.578;2022-12-07T02:35:43;3.40;99.90
23721;DHT22;42950;52.134;5.578;2022-12-07T02:40:52;3.60;99.90
23721;DHT22;42950;52.134;5.578;2022-12-07T02:45:52;3.50;99.90
23721;DHT22;42950;52.134;5.578;2022-12-07T02:48:19;3.60;99.90
23721;DHT22;42950;52.134;5.578;2022-12-07T02:50:50;3.60;99.90
23721;DHT22;42950;52.134;5.578;2022-12-07T02:53:37;3.70;99.90
23721;DHT22;42950;52.134;5.578;2022-12-07T02:59:02;3.70;99.90
23721;DHT22;42950;52.134;5.578;2022-12-07T03:07:52;3.80;99.90
23721;DHT22;42950;52.134;5.578;2022-12-07T03:16:43;3.90;99.90
23721;DHT22;42950;52.134;5.578;2022-12-07T03:19:15;3.90;99.90
23721;DHT22;42950;52.134;5.578;2022-12-07T03:21:46;3.90;99.90
23721;DHT22;42950;52.134;5.578;2022-12-07T03:24:17;3.90;99.90
23721;DHT22;42950;52.134;5.578;2022-12-07T03:26:53;3.90;99.90
23721;DHT22;42950;52.134;5.578;2022-12-07T03:29:27;3.90;99.90
23721;DHT22;42950;52.134;5.578;2022-12-07T03:32:44;3.90;99.90
23721;DHT22;42950;52.134;5.578;2022-12-07T03:34:53;4.00;99.90
23721;DHT22;42950;52.134;5.578;2022-12-07T03:37:40;3.90;99.90
23721;DHT22;42950;52.134;5.578;2022-12-07T03:40:13;3.90;99.90
23721;DHT22;42950;52.134;5.578;2022-12-07T03:42:41;3.90;99.90
23721;DHT22;42950;52.134;5.578;2022-12-07T03:45:07;4.00;99.90
23721;DHT22;42950;52.134;5.578;2022-12-07T03:50:50;4.00;99.90
23721;DHT22;42950;52.134;5.578;2022-12-07T03:55:46;3.90;99.90
23721;DHT22;42950;52.134;5.578;2022-12-07T03:58:16;4.00;99.90
23721;DHT22;42950;52.134;5.578;2022-12-07T04:00:44;4.00;99.90
23721;DHT22;42950;52.134;5.578;2022-12-07T04:03:10;4.00;99.90
23721;DHT22;42950;52.134;5.578;2022-12-07T04:05:36;3.90;99.90
23721;DHT22;42950;52.134;5.578;2022-12-07T04:08:02;3.90;99.90
23721;DHT22;42950;52.134;5.578;2022-12-07T04:10:28;3.90;99.90
23721;DHT22;42950;52.134;5.578;2022-12-07T04:12:54;3.90;99.90
23721;DHT22;42950;52.134;5.578;2022-12-07T04:15:19;3.90;99.90
23721;DHT22;42950;52.134;5.578;2022-12-07T04:17:45;3.90;99.90
23721;DHT22;42950;52.134;5.578;2022-12-07T04:20:11;3.80;99.90
23721;DHT22;42950;52.134;5.578;2022-12-07T04:22:37;3.90;99.90
23721;DHT22;42950;52.134;5.578;2022-12-07T04:25:03;3.90;99.90
23721;DHT22;42950;52.134;5.578;2022-12-07T04:27:28;3.90;99.90
23721;DHT22;42950;52.134;5.578;2022-12-07T04:29:54;4.00;99.90
23721;DHT22;42950;52.134;5.578;2022-12-07T04:32:21;4.00;99.90
23721;DHT22;42950;52.134;5.578;2022-12-07T04:34:47;4.00;99.90
23721;DHT22;42950;52.134;5.578;2022-12-07T04:37:12;4.00;99.90
23721;DHT22;42950;52.134;5.578;2022-12-07T04:39:38;4.00;99.90
23721;DHT22;42950;52.134;5.578;2022-12-07T04:42:03;4.00;99.90
23721;DHT22;42950;52.134;5.578;2022-12-07T04:44:30;4.00;99.90
23721;DHT22;42950;52.134;5.578;2022-12-07T04:46:56;4.00;99.90
23721;DHT22;42950;52.134;5.578;2022-12-07T04:49:22;4.00;99.90
23721;DHT22;42950;52.134;5.578;2022-12-07T04:51:48;4.00;99.90
23721;DHT22;42950;52.134;5.578;2022-12-07T04:54:15;4.00;99.90
23721;DHT22;42950;52.134;5.578;2022-12-07T04:56:42;4.00;99.90
23721;DHT22;42950;52.134;5.578;2022-12-07T04:59:08;3.90;99.90
23721;DHT22;42950;52.134;5.578;2022-12-07T05:01:34;3.90;99.90
23721;DHT22;42950;52.134;5.578;2022-12-07T05:04:00;3.90;99.90
23721;DHT22;42950;52.134;5.578;2022-12-07T05:06:26;3.80;99.90
23721;DHT22;42950;52.134;5.578;2022-12-07T05:08:51;3.80;99.90
23721;DHT22;42950;52.134;5.578;2022-12-07T05:11:17;3.90;99.90
23721;DHT22;42950;52.134;5.578;2022-12-07T05:14:03;3.80;99.90
23721;DHT22;42950;52.134;5.578;2022-12-07T05:16:29;3.90;99.90
23721;DHT22;42950;52.134;5.578;2022-12-07T05:18:55;3.90;99.90
23721;DHT22;42950;52.134;5.578;2022-12-07T05:21:21;3.90;99.90
23721;DHT22;42950;52.134;5.578;2022-12-07T05:23:46;3.90;99.90
23721;DHT22;42950;52.134;5.578;2022-12-07T05:26:12;3.80;99.90
23721;DHT22;42950;52.134;5.578;2022-12-07T05:28:38;3.80;99.90
23721;DHT22;42950;52.134;5.578;2022-12-07T05:31:03;3.80;99.90
23721;DHT22;42950;52.134;5.578;2022-12-07T05:33:29;3.70;99.90
23721;DHT22;42950;52.134;5.578;2022-12-07T05:35:54;3.70;99.90
23721;DHT22;42950;52.134;5.578;2022-12-07T05:38:20;3.70;99.90
23721;DHT22;42950;52.134;5.578;2022-12-07T05:40:46;3.70;99.90
23721;DHT22;42950;52.134;5.578;2022-12-07T05:43:11;3.60;99.90
23721;DHT22;42950;52.134;5.578;2022-12-07T05:45:37;3.60;99.90
23721;DHT22;42950;52.134;5.578;2022-12-07T05:48:03;3.50;99.90
23721;DHT22;42950;52.134;5.578;2022-12-07T05:50:28;3.60;99.90
23721;DHT22;42950;52.134;5.578;2022-12-07T05:52:54;3.50;99.90
23721;DHT22;42950;52.134;5.578;2022-12-07T05:55:20;3.40;99.90
23721;DHT22;42950;52.134;5.578;2022-12-07T05:57:45;3.40;99.90
23721;DHT22;42950;52.134;5.578;2022-12-07T06:00:31;3.40;99.90
23721;DHT22;42950;52.134;5.578;2022-12-07T06:02:57;3.30;99.90
23721;DHT22;42950;52.134;5.578;2022-12-07T06:05:23;3.30;99.90
23721;DHT22;42950;52.134;5.578;2022-12-07T06:07:49;3.30;99.90
23721;DHT22;42950;52.134;5.578;2022-12-07T06:10:14;3.30;99.90
23721;DHT22;42950;52.134;5.578;2022-12-07T06:12:40;3.30;99.90
23721;DHT22;42950;52.134;5.578;2022-12-07T06:15:08;3.30;99.90
23721;DHT22;42950;52.134;5.578;2022-12-07T06:17:34;3.30;99.90
23721;DHT22;42950;52.134;5.578;2022-12-07T06:19:59;3.40;99.90
23721;DHT22;42950;52.134;5.578;2022-12-07T06:22:25;3.40;99.90
23721;DHT22;42950;52.134;5.578;2022-12-07T06:24:50;3.40;99.90
23721;DHT22;42950;52.134;5.578;2022-12-07T06:27:16;3.40;99.90
23721;DHT22;42950;52.134;5.578;2022-12-07T06:29:41;3.40;99.90
23721;DHT22;42950;52.134;5.578;2022-12-07T06:32:07;3.40;99.90
23721;DHT22;42950;52.134;5.578;2022-12-07T06:34:32;3.50;99.90
23721;DHT22;42950;52.134;5.578;2022-12-07T06:36:58;3.40;99.90
23721;DHT22;42950;52.134;5.578;2022-12-07T06:39:26;3.50;99.90
23721;DHT22;42950;52.134;5.578;2022-12-07T06:41:52;3.60;99.90
23721;DHT22;42950;52.134;5.578;2022-12-07T06:44:19;3.60;99.90
23721;DHT22;42950;52.134;5.578;2022-12-07T06:46:45;3.50;99.90
23721;DHT22;42950;52.134;5.578;2022-12-07T06:49:10;3.60;99.90
23721;DHT22;42950;52.134;5.578;2022-12-07T06:51:36;3.60;99.90
23721;DHT22;42950;52.134;5.578;2022-12-07T06:54:12;3.60;99.90
23721;DHT22;42950;52.134;5.578;2022-12-07T06:56:38;3.60;99.90
23721;DHT22;42950;52.134;5.578;2022-12-07T06:59:06;3.50;99.90
23721;DHT22;42950;52.134;5.578;2022-12-07T07:01:33;3.50;99.90
23721;DHT22;42950;52.134;5.578;2022-12-07T07:03:59;3.50;99.90
23721;DHT22;42950;52.134;5.578;2022-12-07T07:06:25;3.60;99.90
23721;DHT22;42950;52.134;5.578;2022-12-07T07:08:50;3.50;99.90
23721;DHT22;42950;52.134;5.578;2022-12-07T07:11:16;3.60;99.90
23721;DHT22;42950;52.134;5.578;2022-12-07T07:13:42;3.60;99.90
23721;DHT22;42950;52.134;5.578;2022-12-07T07:16:08;3.50;99.90
23721;DHT22;42950;52.134;5.578;2022-12-07T07:18:34;3.50;99.90
23721;DHT22;42950;52.134;5.578;2022-12-07T07:21:00;3.40;99.90
23721;DHT22;42950;52.134;5.578;2022-12-07T07:23:26;3.40;99.90
23721;DHT22;42950;52.134;5.578;2022-12-07T07:25:51;3.30;99.90
23721;DHT22;42950;52.134;5.578;2022-12-07T07:28:17;3.20;99.90
23721;DHT22;42950;52.134;5.578;2022-12-07T07:30:43;3.20;99.90
23721;DHT22;42950;52.134;5.578;2022-12-07T07:33:10;3.20;99.90
23721;DHT22;42950;52.134;5.578;2022-12-07T07:35:35;3.20;99.90
23721;DHT22;42950;52.134;5.578;2022-12-07T07:38:01;3.30;99.90
23721;DHT22;42950;52.134;5.578;2022-12-07T07:40:27;3.30;99.90
23721;DHT22;42950;52.134;5.578;2022-12-07T07:42:57;3.20;99.90
23721;DHT22;42950;52.134;5.578;2022-12-07T07:45:24;3.10;99.90
23721;DHT22;42950;52.134;5.578;2022-12-07T07:47:51;3.10;99.90
23721;DHT22;42950;52.134;5.578;2022-12-07T07:50:17;3.10;99.90
23721;DHT22;42950;52.134;5.578;2022-12-07T07:52:43;3.10;99.90
23721;DHT22;42950;52.134;5.578;2022-12-07T07:55:09;3.20;99.90
23721;DHT22;42950;52.134;5.578;2022-12-07T07:57:36;3.20;99.90
23721;DHT22;42950;52.134;5.578;2022-12-07T08:00:08;3.20;99.90
23721;DHT22;42950;52.134;5.578;2022-12-07T08:02:34;3.10;99.90
23721;DHT22;42950;52.134;5.578;2022-12-07T08:04:59;3.20;99.90
23721;DHT22;42950;52.134;5.578;2022-12-07T08:07:27;3.20;99.90
23721;DHT22;42950;52.134;5.578;2022-12-07T08:09:53;3.20;99.90
23721;DHT22;42950;52.134;5.578;2022-12-07T08:12:18;3.30;99.90
23721;DHT22;42950;52.134;5.578;2022-12-07T08:14:44;3.40;99.90
23721;DHT22;42950;52.134;5.578;2022-12-07T08:17:09;3.40;99.90
23721;DHT22;42950;52.134;5.578;2022-12-07T08:19:35;3.40;99.90
23721;DHT22;42950;52.134;5.578;2022-12-07T08:22:01;3.50;99.90
23721;DHT22;42950;52.134;5.578;2022-12-07T08:24:26;3.50;99.90
23721;DHT22;42950;52.134;5.578;2022-12-07T08:26:52;3.50;99.90
23721;DHT22;42950;52.134;5.578;2022-12-07T08:29:18;3.50;99.90
23721;DHT22;42950;52.134;5.578;2022-12-07T08:31:43;3.50;99.90
23721;DHT22;42950;52.134;5.578;2022-12-07T08:34:13;3.60;99.90
23721;DHT22;42950;52.134;5.578;2022-12-07T08:36:39;3.70;99.90
23721;DHT22;42950;52.134;5.578;2022-12-07T08:39:05;3.70;99.90
23721;DHT22;42950;52.134;5.578;2022-12-07T08:41:31;3.70;99.90
23721;DHT22;42950;52.134;5.578;2022-12-07T08:43:56;3.70;99.90
23721;DHT22;42950;52.134;5.578;2022-12-07T08:49:18;3.80;99.90
23721;DHT22;42950;52.134;5.578;2022-12-07T08:51:44;3.80;99.90
23721;DHT22;42950;52.134;5.578;2022-12-07T08:54:14;3.80;99.90
23721;DHT22;42950;52.134;5.578;2022-12-07T08:56:41;3.90;99.90
23721;DHT22;42950;52.134;5.578;2022-12-07T08:59:07;4.00;99.90
23721;DHT22;42950;52.134;5.578;2022-12-07T09:01:33;4.10;99.90
23721;DHT22;42950;52.134;5.578;2022-12-07T09:03:59;4.10;99.90
23721;DHT22;42950;52.134;5.578;2022-12-07T09:06:24;4.20;99.90
23721;DHT22;42950;52.134;5.578;2022-12-07T09:08:54;4.30;99.90
23721;DHT22;42950;52.134;5.578;2022-12-07T09:11:22;4.20;99.90
23721;DHT22;42950;52.134;5.578;2022-12-07T09:13:47;4.20;99.90
23721;DHT22;42950;52.134;5.578;2022-12-07T09:16:13;4.30;99.90
23721;DHT22;42950;52.134;5.578;2022-12-07T09:18:39;4.30;99.90
23721;DHT22;42950;52.134;5.578;2022-12-07T09:21:04;4.40;99.90
23721;DHT22;42950;52.134;5.578;2022-12-07T09:23:30;4.50;99.90
23721;DHT22;42950;52.134;5.578;2022-12-07T09:25:59;4.40;99.90
23721;DHT22;42950;52.134;5.578;2022-12-07T09:28:25;4.40;99.90
23721;DHT22;42950;52.134;5.578;2022-12-07T09:30:51;4.50;99.90
23721;DHT22;42950;52.134;5.578;2022-12-07T09:33:16;4.60;99.90
23721;DHT22;42950;52.134;5.578;2022-12-07T09:35:46;4.70;99.90
23721;DHT22;42950;52.134;5.578;2022-12-07T09:38:12;4.80;99.90
23721;DHT22;42950;52.134;5.578;2022-12-07T09:40:38;4.90;99.90
23721;DHT22;42950;52.134;5.578;2022-12-07T09:43:03;5.00;99.90
23721;DHT22;42950;52.134;5.578;2022-12-07T09:45:34;5.00;99.90
23721;DHT22;42950;52.134;5.578;2022-12-07T09:48:02;5.10;99.90
23721;DHT22;42950;52.134;5.578;2022-12-07T09:50:29;5.10;99.90
23721;DHT22;42950;52.134;5.578;2022-12-07T09:53:06;5.00;99.90
23721;DHT22;42950;52.134;5.578;2022-12-07T09:55:33;5.00;99.90
23721;DHT22;42950;52.134;5.578;2022-12-07T09:58:00;4.90;99.90
23721;DHT22;42950;52.134;5.578;2022-12-07T10:00:26;4.90;99.90
23721;DHT22;42950;52.134;5.578;2022-12-07T10:03:02;4.80;99.90
23721;DHT22;42950;52.134;5.578;2022-12-07T10:05:44;5.00;99.90
23721;DHT22;42950;52.134;5.578;2022-12-07T10:08:12;5.10;99.90
23721;DHT22;42950;52.134;5.578;2022-12-07T10:10:38;5.00;99.90
23721;DHT22;42950;52.134;5.578;2022-12-07T10:13:13;5.10;99.90
23721;DHT22;42950;52.134;5.578;2022-12-07T10:18:42;5.20;99.90
23721;DHT22;42950;52.134;5.578;2022-12-07T10:21:21;5.20;99.90
23721;DHT22;42950;52.134;5.578;2022-12-07T10:29:21;5.50;99.90
23721;DHT22;42950;52.134;5.578;2022-12-07T10:31:54;5.50;99.90
23721;DHT22;42950;52.134;5.578;2022-12-07T10:34:22;5.50;99.90
23721;DHT22;42950;52.134;5.578;2022-12-07T10:36:50;5.60;99.90
23721;DHT22;42950;52.134;5.578;2022-12-07T10:39:21;5.70;99.90
23721;DHT22;42950;52.134;5.578;2022-12-07T10:42:01;5.70;99.90
23721;DHT22;42950;52.134;5.578;2022-12-07T10:44:29;5.80;99.90
23721;DHT22;42950;52.134;5.578;2022-12-07T10:49:53;5.80;99.90
23721;DHT22;42950;52.134;5.578;2022-12-07T11:01:12;6.10;99.90
23721;DHT22;42950;52.134;5.578;2022-12-07T11:03:45;6.30;99.90
23721;DHT22;42950;52.134;5.578;2022-12-07T11:11:48;6.40;99.90
23721;DHT22;42950;52.134;5.578;2022-12-07T11:14:49;6.50;99.90
23721;DHT22;42950;52.134;5.578;2022-12-07T11:17:26;6.60;99.90
23721;DHT22;42950;52.134;5.578;2022-12-07T11:20:23;6.70;99.90
23721;DHT22;42950;52.134;5.578;2022-12-07T11:23:04;6.70;99.90
23721;DHT22;42950;52.134;5.578;2022-12-07T11:25:59;6.70;99.90
23721;DHT22;42950;52.134;5.578;2022-12-07T11:31:31;6.50;99.90
23721;DHT22;42950;52.134;5.578;2022-12-07T11:34:07;6.40;99.90
23721;DHT22;42950;52.134;5.578;2022-12-07T11:36:43;6.30;99.90
23721;DHT22;42950;52.134;5.578;2022-12-07T11:41:48;6.30;99.90
23721;DHT22;42950;52.134;5.578;2022-12-07T11:44:34;6.30;99.90
23721;DHT22;42950;52.134;5.578;2022-12-07T11:47:08;6.40;99.90
23721;DHT22;42950;52.134;5.578;2022-12-07T11:49:51;6.60;99.90
23721;DHT22;42950;52.134;5.578;2022-12-07T11:52:47;6.80;99.90
23721;DHT22;42950;52.134;5.578;2022-12-07T11:55:24;6.90;99.90
23721;DHT22;42950;52.134;5.578;2022-12-07T11:58:03;7.00;99.90
23721;DHT22;42950;52.134;5.578;2022-12-07T12:00:29;7.10;99.90
23721;DHT22;42950;52.134;5.578;2022-12-07T12:03:19;7.10;99.90
23721;DHT22;42950;52.134;5.578;2022-12-07T12:05:48;7.30;99.90
23721;DHT22;42950;52.134;5.578;2022-12-07T12:08:34;7.20;99.90
23721;DHT22;42950;52.134;5.578;2022-12-07T12:16:51;7.50;99.90
23721;DHT22;42950;52.134;5.578;2022-12-07T12:19:33;7.50;99.90
23721;DHT22;42950;52.134;5.578;2022-12-07T12:22:15;7.50;99.90
23721;DHT22;42950;52.134;5.578;2022-12-07T12:24:43;7.40;99.90
23721;DHT22;42950;52.134;5.578;2022-12-07T12:27:27;7.40;99.90
23721;DHT22;42950;52.134;5.578;2022-12-07T12:29:59;7.40;99.90
23721;DHT22;42950;52.134;5.578;2022-12-07T12:32:39;7.50;99.90
23721;DHT22;42950;52.134;5.578;2022-12-07T12:35:34;7.40;99.90
23721;DHT22;42950;52.134;5.578;2022-12-07T12:40:45;7.30;99.90
23721;DHT22;42950;52.134;5.578;2022-12-07T12:51:51;7.50;99.90
23721;DHT22;42950;52.134;5.578;2022-12-07T12:54:29;7.60;99.90
23721;DHT22;42950;52.134;5.578;2022-12-07T13:05:03;7.50;99.90
23721;DHT22;42950;52.134;5.578;2022-12-07T13:15:39;7.40;99.90
23721;DHT22;42950;52.134;5.578;2022-12-07T13:28:58;6.50;99.90
23721;DHT22;42950;52.134;5.578;2022-12-07T13:31:33;6.30;99.90
23721;DHT22;42950;52.134;5.578;2022-12-07T13:34:00;6.20;99.90
23721;DHT22;42950;52.134;5.578;2022-12-07T13:36:32;6.20;99.90
23721;DHT22;42950;52.134;5.578;2022-12-07T13:39:21;6.20;99.90
23721;DHT22;42950;52.134;5.578;2022-12-07T13:41:55;6.20;99.90
23721;DHT22;42950;52.134;5.578;2022-12-07T13:44:24;6.30;99.90
23721;DHT22;42950;52.134;5.578;2022-12-07T13:46:55;6.30;99.90
23721;DHT22;42950;52.134;5.578;2022-12-07T13:49:27;6.30;99.90
23721;DHT22;42950;52.134;5.578;2022-12-07T13:51:53;6.30;99.90
23721;DHT22;42950;52.134;5.578;2022-12-07T13:54:20;6.40;99.90
23721;DHT22;42950;52.134;5.578;2022-12-07T13:56:53;6.50;99.90
23721;DHT22;42950;52.134;5.578;2022-12-07T13:59:21;6.60;99.90
23721;DHT22;42950;52.134;5.578;2022-12-07T14:01:49;6.60;99.90
23721;DHT22;42950;52.134;5.578;2022-12-07T14:04:30;6.70;99.90
23721;DHT22;42950;52.134;5.578;2022-12-07T14:06:57;6.70;99.90
23721;DHT22;42950;52.134;5.578;2022-12-07T14:09:25;6.70;99.90
23721;DHT22;42950;52.134;5.578;2022-12-07T14:11:53;6.70;99.90
23721;DHT22;42950;52.134;5.578;2022-12-07T14:14:26;6.70;99.90
23721;DHT22;42950;52.134;5.578;2022-12-07T14:16:59;6.50;99.90
23721;DHT22;42950;52.134;5.578;2022-12-07T14:22:19;6.40;99.90
23721;DHT22;42950;52.134;5.578;2022-12-07T14:24:46;6.40;99.90
23721;DHT22;42950;52.134;5.578;2022-12-07T14:27:22;6.40;99.90
23721;DHT22;42950;52.134;5.578;2022-12-07T14:29:50;6.40;99.90
23721;DHT22;42950;52.134;5.578;2022-12-07T14:32:21;6.50;99.90
23721;DHT22;42950;52.134;5.578;2022-12-07T14:35:29;6.50;99.90
23721;DHT22;42950;52.134;5.578;2022-12-07T14:37:48;6.60;99.90
23721;DHT22;42950;52.134;5.578;2022-12-07T14:40:23;6.60;99.90
23721;DHT22;42950;52.134;5.578;2022-12-07T14:42:55;6.50;99.90
23721;DHT22;42950;52.134;5.578;2022-12-07T14:45:22;6.50;99.90
23721;DHT22;42950;52.134;5.578;2022-12-07T14:47:48;6.50;99.90
23721;DHT22;42950;52.134;5.578;2022-12-07T14:50:16;6.60;99.90
23721;DHT22;42950;52.134;5.578;2022-12-07T14:52:48;6.60;99.90
23721;DHT22;42950;52.134;5.578;2022-12-07T14:55:27;6.60;99.90
23721;DHT22;42950;52.134;5.578;2022-12-07T14:57:53;6.50;99.90
23721;DHT22;42950;52.134;5.578;2022-12-07T15:00:21;6.50;99.90
23721;DHT22;42950;52.134;5.578;2022-12-07T15:02:48;6.50;99.90
23721;DHT22;42950;52.134;5.578;2022-12-07T15:05:13;6.50;99.90
23721;DHT22;42950;52.134;5.578;2022-12-07T15:07:39;6.50;99.90
23721;DHT22;42950;52.134;5.578;2022-12-07T15:10:06;6.40;99.90
23721;DHT22;42950;52.134;5.578;2022-12-07T15:12:32;6.40;99.90
23721;DHT22;42950;52.134;5.578;2022-12-07T15:14:57;6.40;99.90
23721;DHT22;42950;52.134;5.578;2022-12-07T15:17:23;6.50;99.90
23721;DHT22;42950;52.134;5.578;2022-12-07T15:19:48;6.50;99.90
23721;DHT22;42950;52.134;5.578;2022-12-07T15:22:14;6.40;99.90
23721;DHT22;42950;52.134;5.578;2022-12-07T15:24:40;6.40;99.90
23721;DHT22;42950;52.134;5.578;2022-12-07T15:27:05;6.50;99.90
23721;DHT22;42950;52.134;5.578;2022-12-07T15:29:31;6.40;99.90
23721;DHT22;42950;52.134;5.578;2022-12-07T15:31:56;6.30;99.90
23721;DHT22;42950;52.134;5.578;2022-12-07T15:34:24;6.20;99.90
23721;DHT22;42950;52.134;5.578;2022-12-07T15:36:50;6.10;99.90
23721;DHT22;42950;52.134;5.578;2022-12-07T15:39:16;6.00;99.90
23721;DHT22;42950;52.134;5.578;2022-12-07T15:41:41;6.00;99.90
23721;DHT22;42950;52.134;5.578;2022-12-07T15:44:11;5.90;99.90
23721;DHT22;42950;52.134;5.578;2022-12-07T15:46:56;5.90;99.90
23721;DHT22;42950;52.134;5.578;2022-12-07T15:49:21;5.90;99.90
23721;DHT22;42950;52.134;5.578;2022-12-07T15:51:47;5.80;99.90
23721;DHT22;42950;52.134;5.578;2022-12-07T15:54:20;5.80;99.90
23721;DHT22;42950;52.134;5.578;2022-12-07T15:56:46;5.80;99.90
23721;DHT22;42950;52.134;5.578;2022-12-07T15:59:12;5.80;99.90
23721;DHT22;42950;52.134;5.578;2022-12-07T16:01:37;5.80;99.90
23721;DHT22;42950;52.134;5.578;2022-12-07T16:04:03;5.70;99.90
23721;DHT22;42950;52.134;5.578;2022-12-07T16:06:28;5.70;99.90
23721;DHT22;42950;52.134;5.578;2022-12-07T16:08:54;5.70;99.90
23721;DHT22;42950;52.134;5.578;2022-12-07T16:11:20;5.80;99.90
23721;DHT22;42950;52.134;5.578;2022-12-07T16:13:45;5.70;99.90
23721;DHT22;42950;52.134;5.578;2022-12-07T16:16:13;5.70;99.90
23721;DHT22;42950;52.134;5.578;2022-12-07T16:18:41;5.70;99.90
23721;DHT22;42950;52.134;5.578;2022-12-07T16:21:06;5.70;99.90
23721;DHT22;42950;52.134;5.578;2022-12-07T16:23:32;5.80;99.90
23721;DHT22;42950;52.134;5.578;2022-12-07T16:26:12;5.90;99.90
23721;DHT22;42950;52.134;5.578;2022-12-07T16:28:38;5.90;99.90
23721;DHT22;42950;52.134;5.578;2022-12-07T16:31:06;5.90;99.90
23721;DHT22;42950;52.134;5.578;2022-12-07T16:33:36;5.90;99.90
23721;DHT22;42950;52.134;5.578;2022-12-07T16:36:02;5.80;99.90
23721;DHT22;42950;52.134;5.578;2022-12-07T16:38:28;5.90;99.90
23721;DHT22;42950;52.134;5.578;2022-12-07T16:40:53;5.90;99.90
23721;DHT22;42950;52.134;5.578;2022-12-07T16:43:19;5.80;99.90
23721;DHT22;42950;52.134;5.578;2022-12-07T16:45:46;5.70;99.90
23721;DHT22;42950;52.134;5.578;2022-12-07T16:48:13;5.70;99.90
23721;DHT22;42950;52.134;5.578;2022-12-07T16:50:40;5.70;99.90
23721;DHT22;42950;52.134;5.578;2022-12-07T16:53:07;5.70;99.90
23721;DHT22;42950;52.134;5.578;2022-12-07T16:55:36;5.70;99.90
23721;DHT22;42950;52.134;5.578;2022-12-07T16:58:02;5.80;99.90
23721;DHT22;42950;52.134;5.578;2022-12-07T17:00:27;5.60;99.90
23721;DHT22;42950;52.134;5.578;2022-12-07T17:02:53;5.60;99.90
23721;DHT22;42950;52.134;5.578;2022-12-07T17:05:20;5.50;99.90
23721;DHT22;42950;52.134;5.578;2022-12-07T17:07:46;5.50;99.90
23721;DHT22;42950;52.134;5.578;2022-12-07T17:10:11;5.40;99.90
23721;DHT22;42950;52.134;5.578;2022-12-07T17:12:37;5.40;99.90
23721;DHT22;42950;52.134;5.578;2022-12-07T17:15:03;5.30;99.90
23721;DHT22;42950;52.134;5.578;2022-12-07T17:17:51;5.40;99.90
23721;DHT22;42950;52.134;5.578;2022-12-07T17:20:17;5.40;99.90
23721;DHT22;42950;52.134;5.578;2022-12-07T17:22:44;5.40;99.90
23721;DHT22;42950;52.134;5.578;2022-12-07T17:25:09;5.40;99.90
23721;DHT22;42950;52.134;5.578;2022-12-07T17:27:35;5.40;99.90
23721;DHT22;42950;52.134;5.578;2022-12-07T17:30:03;5.40;99.90
23721;DHT22;42950;52.134;5.578;2022-12-07T17:32:28;5.30;99.90
23721;DHT22;42950;52.134;5.578;2022-12-07T17:34:54;5.30;99.90
23721;DHT22;42950;52.134;5.578;2022-12-07T17:37:19;5.40;99.90
23721;DHT22;42950;52.134;5.578;2022-12-07T17:39:45;5.30;99.90
23721;DHT22;42950;52.134;5.578;2022-12-07T17:42:10;5.30;99.90
23721;DHT22;42950;52.134;5.578;2022-12-07T17:44:54;5.30;99.90
23721;DHT22;42950;52.134;5.578;2022-12-07T17:47:20;5.20;99.90
23721;DHT22;42950;52.134;5.578;2022-12-07T17:49:46;5.20;99.90
23721;DHT22;42950;52.134;5.578;2022-12-07T17:52:13;5.20;99.90
23721;DHT22;42950;52.134;5.578;2022-12-07T17:54:57;5.20;99.90